createdAt,value
2023-02-11T00:01:23.437Z,57.04
2023-02-11T00:03:53.755Z,57.05
2023-02-11T00:06:24.141Z,56.98
2023-02-11T00:08:54.200Z,56.94
2023-02-11T00:11:26.589Z,57.07
2023-02-11T00:13:56.533Z,56.98
2023-02-11T00:16:29.933Z,56.85
2023-02-11T00:19:01.437Z,56.74
2023-02-11T00:21:32.033Z,56.75
2023-02-11T00:24:02.910Z,56.42
2023-02-11T00:26:35.637Z,56.13
2023-02-11T00:29:06.736Z,55.96
2023-02-11T00:31:39.521Z,55.95
2023-02-11T00:34:09.637Z,55.92
2023-02-11T00:36:39.548Z,56.02
2023-02-11T00:39:11.201Z,56.02
2023-02-11T00:41:41.212Z,56.28
2023-02-11T00:44:11.192Z,56.49
2023-02-11T00:46:43.968Z,56.51
2023-02-11T00:49:14.456Z,56.18
2023-02-11T00:51:44.940Z,56.29
2023-02-11T00:54:15.873Z,56.37
2023-02-11T00:56:46.536Z,56.25
2023-02-11T00:59:16.548Z,56.28
2023-02-11T01:01:49.920Z,56.44
2023-02-11T01:04:19.918Z,56.30
2023-02-11T01:06:49.961Z,56.38
2023-02-11T01:09:21.210Z,56.36
2023-02-11T01:11:51.340Z,56.64
2023-02-11T01:14:21.236Z,56.87
2023-02-11T01:16:56.243Z,57.07
2023-02-11T01:19:26.271Z,57.06
2023-02-11T01:21:56.320Z,57.19
2023-02-11T01:24:26.311Z,57.32
2023-02-11T01:26:56.293Z,57.41
2023-02-11T01:29:27.728Z,57.46
2023-02-11T01:32:00.874Z,57.57
2023-02-11T01:34:30.984Z,57.65
2023-02-11T01:37:01.680Z,57.83
2023-02-11T01:39:35.476Z,57.77
2023-02-11T01:42:05.782Z,58.05
2023-02-11T01:44:38.247Z,58.21
2023-02-11T01:47:11.264Z,58.04
2023-02-11T01:49:44.681Z,57.91
2023-02-11T01:52:20.461Z,58.08
2023-02-11T01:55:09.191Z,58.04
2023-02-11T01:57:42.581Z,57.67
2023-02-11T02:00:17.099Z,57.82
2023-02-11T02:02:57.776Z,57.55
2023-02-11T02:05:35.433Z,57.20
2023-02-11T02:08:12.614Z,57.00
2023-02-11T02:10:46.062Z,57.54
2023-02-11T02:13:16.314Z,57.69
2023-02-11T02:15:53.035Z,57.82
2023-02-11T02:18:38.839Z,57.43
2023-02-11T02:21:50.456Z,57.55
2023-02-11T02:24:47.335Z,57.29
2023-02-11T02:27:36.073Z,57.09
2023-02-11T02:30:38.754Z,57.21
2023-02-11T02:33:37.863Z,57.48
2023-02-11T02:36:25.985Z,57.42
2023-02-11T02:39:00.733Z,57.51
2023-02-11T02:41:33.690Z,57.47
2023-02-11T02:44:04.771Z,57.58
2023-02-11T02:46:36.653Z,57.31
2023-02-11T02:49:13.750Z,57.42
2023-02-11T02:52:07.057Z,57.50
2023-02-11T02:55:06.917Z,57.43
2023-02-11T02:57:47.858Z,57.20
2023-02-11T03:00:26.642Z,57.13
2023-02-11T03:03:11.587Z,57.13
2023-02-11T03:05:52.890Z,57.09
2023-02-11T03:08:30.381Z,56.99
2023-02-11T03:11:03.475Z,57.13
2023-02-11T03:13:36.840Z,57.30
2023-02-11T03:16:12.305Z,57.52
2023-02-11T03:18:47.149Z,57.67
2023-02-11T03:21:22.902Z,57.68
2023-02-11T03:23:56.502Z,57.99
2023-02-11T03:26:33.482Z,57.85
2023-02-11T03:29:07.485Z,57.78
2023-02-11T03:31:43.006Z,57.64
2023-02-11T03:34:16.133Z,57.71
2023-02-11T03:36:53.984Z,58.04
2023-02-11T03:39:27.639Z,57.60
2023-02-11T03:42:01.170Z,57.67
2023-02-11T03:44:36.114Z,57.45
2023-02-11T03:47:08.620Z,57.50
2023-02-11T03:49:41.338Z,57.61
2023-02-11T03:52:16.403Z,57.65
2023-02-11T03:54:49.258Z,57.58
2023-02-11T03:57:19.514Z,57.80
2023-02-11T04:00:00.157Z,57.68
2023-02-11T04:02:34.749Z,57.69
2023-02-11T04:05:05.366Z,57.94
2023-02-11T04:07:38.359Z,58.55
2023-02-11T04:10:10.169Z,58.39
2023-02-11T04:12:40.364Z,57.98
2023-02-11T04:15:11.411Z,58.43
2023-02-11T04:17:42.527Z,58.73
2023-02-11T04:20:14.235Z,59.10
2023-02-11T04:22:46.908Z,58.99
2023-02-11T04:25:16.950Z,58.50
2023-02-11T04:27:46.859Z,58.54
2023-02-11T04:30:16.986Z,58.81
2023-02-11T04:32:47.006Z,58.91
2023-02-11T04:35:17.022Z,59.25
2023-02-11T04:37:49.578Z,59.40
2023-02-11T04:40:20.089Z,59.46
2023-02-11T04:42:50.234Z,59.77
2023-02-11T04:45:20.228Z,59.44
2023-02-11T04:47:50.176Z,59.68
2023-02-11T04:50:20.609Z,60.09
2023-02-11T04:52:53.213Z,60.25
2023-02-11T04:55:23.283Z,60.34
2023-02-11T04:57:53.255Z,60.14
2023-02-11T05:00:23.658Z,60.65
2023-02-11T05:02:53.676Z,60.88
2023-02-11T05:05:23.647Z,60.96
2023-02-11T05:07:56.345Z,61.16
2023-02-11T05:10:26.462Z,61.36
2023-02-11T05:12:56.402Z,61.68
2023-02-11T05:15:26.474Z,61.58
2023-02-11T05:17:56.838Z,61.97
2023-02-11T05:20:26.808Z,61.91
2023-02-11T05:22:59.302Z,62.01
2023-02-11T05:25:29.306Z,62.13
2023-02-11T05:27:59.609Z,62.27
2023-02-11T05:30:29.692Z,62.26
2023-02-11T05:33:00.194Z,62.69
2023-02-11T05:35:30.315Z,62.71
2023-02-11T05:38:02.910Z,62.90
2023-02-11T05:40:32.920Z,62.89
2023-02-11T05:43:02.899Z,62.94
2023-02-11T05:45:33.091Z,62.91
2023-02-11T05:48:03.385Z,62.79
2023-02-11T05:50:34.436Z,62.74
2023-02-11T05:53:07.132Z,62.64
2023-02-11T05:55:37.724Z,62.84
2023-02-11T05:58:09.290Z,63.04
2023-02-11T06:00:42.141Z,62.83
2023-02-11T06:03:12.176Z,63.10
2023-02-11T06:05:42.236Z,63.19
2023-02-11T06:08:15.300Z,63.43
2023-02-11T06:10:47.879Z,63.49
2023-02-11T06:13:18.697Z,63.24
2023-02-11T06:15:49.087Z,63.26
2023-02-11T06:18:19.445Z,63.68
2023-02-11T06:20:49.605Z,63.87
2023-02-11T06:23:22.171Z,63.80
2023-02-11T06:25:52.370Z,63.83
2023-02-11T06:28:22.802Z,64.19
2023-02-11T06:30:52.811Z,64.59
2023-02-11T06:33:22.827Z,64.44
2023-02-11T06:35:53.083Z,64.74
2023-02-11T06:38:25.676Z,64.79
2023-02-11T06:40:55.586Z,65.14
2023-02-11T06:43:25.701Z,65.34
2023-02-11T06:45:56.969Z,65.47
2023-02-11T06:48:27.229Z,65.64
2023-02-11T06:50:57.232Z,65.59
2023-02-11T06:53:31.976Z,65.49
2023-02-11T06:56:05.878Z,65.45
2023-02-11T06:58:35.892Z,65.76
2023-02-11T07:01:08.214Z,65.48
2023-02-11T07:03:39.451Z,65.41
2023-02-11T07:06:15.668Z,65.41
2023-02-11T07:08:49.014Z,65.99
2023-02-11T07:11:21.184Z,65.80
2023-02-11T07:13:51.202Z,65.98
2023-02-11T07:16:22.402Z,66.05
2023-02-11T07:18:52.815Z,66.41
2023-02-11T07:21:25.626Z,66.21
2023-02-11T07:23:58.294Z,66.41
2023-02-11T07:26:29.086Z,66.36
2023-02-11T07:28:59.192Z,66.15
2023-02-11T07:31:31.034Z,66.42
2023-02-11T07:34:03.282Z,66.37
2023-02-11T07:36:34.592Z,66.06
2023-02-11T07:39:07.510Z,65.63
2023-02-11T07:41:38.156Z,65.60
2023-02-11T07:44:08.744Z,65.68
2023-02-11T07:46:43.139Z,65.86
2023-02-11T07:49:13.723Z,65.68
2023-02-11T07:51:43.648Z,65.44
2023-02-11T07:54:16.271Z,65.35
2023-02-11T07:56:46.280Z,65.52
2023-02-11T07:59:16.323Z,65.82
2023-02-11T08:01:46.421Z,65.83
2023-02-11T08:04:16.471Z,65.63
2023-02-11T08:06:46.981Z,65.53
2023-02-11T08:09:19.851Z,65.89
2023-02-11T08:11:49.840Z,65.91
2023-02-11T08:14:20.786Z,65.77
2023-02-11T08:16:51.103Z,65.62
2023-02-11T08:19:21.168Z,65.31
2023-02-11T08:21:51.158Z,65.52
2023-02-11T08:24:23.972Z,65.18
2023-02-11T08:26:53.908Z,65.26
2023-02-11T08:29:23.887Z,65.28
2023-02-11T08:31:54.058Z,65.35
2023-02-11T08:34:24.020Z,65.64
2023-02-11T08:36:54.140Z,65.71
2023-02-11T08:39:26.687Z,65.62
2023-02-11T08:41:58.316Z,65.86
2023-02-11T08:44:29.711Z,66.19
2023-02-11T08:46:59.710Z,66.04
2023-02-11T08:49:30.734Z,66.15
2023-02-11T08:52:04.344Z,65.97
2023-02-11T08:54:37.208Z,66.06
2023-02-11T08:57:07.913Z,66.36
2023-02-11T08:59:40.119Z,66.29
2023-02-11T09:02:14.282Z,65.98
2023-02-11T09:04:44.376Z,65.96
2023-02-11T09:07:14.651Z,65.94
2023-02-11T09:09:50.221Z,66.03
2023-02-11T09:12:20.317Z,66.29
2023-02-11T09:14:50.307Z,65.96
2023-02-11T09:17:20.360Z,65.90
2023-02-11T09:19:50.269Z,66.08
2023-02-11T09:22:20.453Z,66.03
2023-02-11T09:24:53.094Z,66.12
2023-02-11T09:27:23.079Z,66.12
2023-02-11T09:29:53.179Z,66.08
2023-02-11T09:32:23.104Z,65.98
2023-02-11T09:34:53.112Z,65.93
2023-02-11T09:37:23.051Z,66.12
2023-02-11T09:39:55.579Z,65.98
2023-02-11T09:42:43.410Z,66.05
2023-02-11T09:45:18.749Z,65.64
2023-02-11T09:47:52.575Z,65.68
2023-02-11T09:50:29.027Z,65.81
2023-02-11T09:53:03.046Z,65.78
2023-02-11T09:55:39.609Z,66.14
2023-02-11T09:58:15.978Z,66.24
2023-02-11T10:00:50.341Z,66.41
2023-02-11T10:03:45.343Z,66.45
2023-02-11T10:06:28.345Z,66.52
2023-02-11T10:09:10.602Z,66.60
2023-02-11T10:11:54.005Z,66.85
2023-02-11T10:14:43.875Z,66.91
2023-02-11T10:17:22.453Z,66.88
2023-02-11T10:20:05.631Z,66.94
2023-02-11T10:22:40.596Z,66.91
2023-02-11T10:25:23.010Z,66.97
2023-02-11T10:27:58.603Z,67.01
2023-02-11T10:30:34.010Z,67.25
2023-02-11T10:33:09.657Z,67.14
2023-02-11T10:35:42.576Z,67.12
2023-02-11T10:38:13.674Z,67.20
2023-02-11T10:40:44.081Z,67.24
2023-02-11T10:43:18.524Z,67.26
2023-02-11T10:45:52.776Z,67.22
2023-02-11T10:48:42.488Z,67.47
2023-02-11T10:51:21.455Z,67.84
2023-02-11T10:53:53.479Z,67.91
2023-02-11T10:56:33.315Z,68.05
2023-02-11T10:59:10.437Z,68.00
2023-02-11T11:01:46.765Z,68.35
2023-02-11T11:04:37.576Z,68.49
2023-02-11T11:07:21.148Z,68.64
2023-02-11T11:09:55.053Z,68.64
2023-02-11T11:12:40.290Z,68.88
2023-02-11T11:15:23.714Z,68.73
2023-02-11T11:18:21.326Z,68.73
2023-02-11T11:21:00.183Z,69.04
2023-02-11T11:23:32.633Z,69.28
2023-02-11T11:26:07.152Z,69.30
2023-02-11T11:28:43.697Z,69.26
2023-02-11T11:31:23.271Z,69.09
2023-02-11T11:33:56.790Z,68.75
2023-02-11T11:36:35.292Z,69.10
2023-02-11T11:39:20.291Z,68.69
2023-02-11T11:41:56.577Z,68.71
2023-02-11T11:44:30.104Z,69.10
2023-02-11T11:47:29.983Z,69.22
2023-02-11T11:50:28.103Z,68.64
2023-02-11T11:53:04.670Z,68.38
2023-02-11T11:55:44.516Z,68.55
2023-02-11T11:58:19.347Z,68.33
2023-02-11T12:00:57.806Z,68.22
2023-02-11T12:04:01.475Z,67.87
2023-02-11T12:06:43.202Z,67.70
2023-02-11T12:09:23.041Z,67.88
2023-02-11T12:12:18.057Z,67.65
2023-02-11T12:14:59.828Z,67.53
2023-02-11T12:17:53.238Z,67.60
2023-02-11T12:20:34.950Z,67.78
2023-02-11T12:23:24.282Z,68.06
2023-02-11T12:26:00.866Z,67.93
2023-02-11T12:28:41.871Z,67.63
2023-02-11T12:31:26.938Z,67.47
2023-02-11T12:34:16.096Z,67.46
2023-02-11T12:37:02.813Z,67.26
2023-02-11T12:39:46.093Z,67.51
2023-02-11T12:42:53.895Z,67.53
2023-02-11T12:45:41.259Z,67.22
2023-02-11T12:48:25.651Z,67.56
2023-02-11T12:51:03.864Z,67.24
2023-02-11T12:53:55.110Z,67.46
2023-02-11T12:56:31.277Z,67.50
2023-02-11T12:59:05.901Z,67.83
2023-02-11T13:01:42.867Z,67.86
2023-02-11T13:04:22.782Z,67.72
2023-02-11T13:06:56.676Z,67.84
2023-02-11T13:09:35.185Z,67.87
2023-02-11T13:12:22.744Z,68.15
2023-02-11T13:14:55.199Z,68.34
2023-02-11T13:17:30.832Z,68.24
2023-02-11T13:20:05.690Z,68.23
2023-02-11T13:22:41.635Z,68.21
2023-02-11T13:25:28.388Z,68.45
2023-02-11T13:28:05.864Z,68.03
2023-02-11T13:30:39.648Z,68.08
2023-02-11T13:33:33.449Z,68.03
2023-02-11T13:36:21.507Z,68.00
2023-02-11T13:39:01.090Z,68.23
2023-02-11T13:41:40.727Z,68.19
2023-02-11T13:44:26.748Z,68.11
2023-02-11T13:47:08.505Z,68.17
2023-02-11T13:49:41.231Z,68.13
2023-02-11T13:52:26.929Z,68.37
2023-02-11T13:54:59.698Z,68.19
2023-02-11T13:57:42.893Z,68.56
2023-02-11T14:00:52.200Z,68.51
2023-02-11T14:03:47.000Z,68.40
2023-02-11T14:06:33.240Z,68.67
2023-02-11T14:09:11.699Z,69.03
2023-02-11T14:11:55.416Z,69.13
2023-02-11T14:14:29.572Z,69.36
2023-02-11T14:17:36.034Z,69.60
2023-02-11T14:20:28.706Z,69.46
2023-02-11T14:22:59.494Z,69.44
2023-02-11T14:25:30.624Z,69.13
2023-02-11T14:28:09.763Z,69.51
2023-02-11T14:30:53.969Z,69.25
2023-02-11T14:34:06.001Z,69.33
2023-02-11T14:36:54.769Z,69.29
2023-02-11T14:39:48.082Z,69.45
2023-02-11T14:42:22.629Z,69.36
2023-02-11T14:44:53.721Z,69.33
2023-02-11T14:47:31.093Z,69.58
2023-02-11T14:50:01.203Z,69.10
2023-02-11T14:52:33.467Z,69.09
2023-02-11T14:55:18.021Z,69.07
2023-02-11T14:57:51.157Z,69.44
2023-02-11T15:00:24.061Z,69.61
2023-02-11T15:02:57.112Z,69.42
2023-02-11T15:05:30.323Z,69.44
2023-02-11T15:08:02.689Z,69.10
2023-02-11T15:10:36.299Z,69.42
2023-02-11T15:13:07.912Z,69.51
2023-02-11T15:15:38.798Z,69.45
2023-02-11T15:18:12.216Z,69.32
2023-02-11T15:20:44.514Z,69.25
2023-02-11T15:23:24.552Z,69.11
2023-02-11T15:25:56.309Z,68.94
2023-02-11T15:28:29.051Z,68.97
2023-02-11T15:31:08.180Z,69.06
2023-02-11T15:33:40.873Z,69.19
2023-02-11T15:36:14.813Z,69.01
2023-02-11T15:38:45.149Z,69.20
2023-02-11T15:41:37.707Z,69.21
2023-02-11T15:44:08.252Z,68.92
2023-02-11T15:46:42.295Z,69.32
2023-02-11T15:49:21.527Z,69.34
2023-02-11T15:51:52.023Z,69.48
2023-02-11T15:54:23.943Z,69.54
2023-02-11T15:57:02.791Z,69.82
2023-02-11T15:59:38.244Z,69.70
2023-02-11T16:02:11.366Z,69.75
2023-02-11T16:04:53.942Z,69.88
2023-02-11T16:07:42.881Z,69.71
2023-02-11T16:10:21.441Z,69.80
2023-02-11T16:13:04.650Z,69.91
2023-02-11T16:15:51.097Z,69.71
2023-02-11T16:18:39.070Z,69.80
2023-02-11T16:21:19.001Z,69.84
2023-02-11T16:23:55.969Z,70.04
2023-02-11T16:26:31.961Z,69.95
2023-02-11T16:29:10.637Z,69.81
2023-02-11T16:31:43.544Z,69.91
2023-02-11T16:34:18.736Z,69.75
2023-02-11T16:36:52.998Z,69.63
2023-02-11T16:39:24.430Z,69.77
2023-02-11T16:41:56.221Z,69.73
2023-02-11T16:44:26.164Z,69.87
2023-02-11T16:46:56.975Z,69.97
2023-02-11T16:49:30.627Z,70.15
2023-02-11T16:52:09.250Z,70.01
2023-02-11T16:54:39.281Z,69.85
2023-02-11T16:57:16.362Z,69.56
2023-02-11T16:59:46.695Z,69.55
2023-02-11T17:02:23.616Z,69.66
2023-02-11T17:04:55.198Z,69.40
2023-02-11T17:07:28.011Z,69.54
2023-02-11T17:09:58.156Z,69.63
2023-02-11T17:12:28.414Z,69.53
2023-02-11T17:14:58.475Z,69.16
2023-02-11T17:17:30.067Z,69.27
2023-02-11T17:20:00.155Z,69.16
2023-02-11T17:22:32.866Z,69.17
2023-02-11T17:25:03.059Z,69.29
2023-02-11T17:27:33.374Z,69.06
2023-02-11T17:30:03.532Z,69.05
2023-02-11T17:32:33.538Z,69.20
2023-02-11T17:35:03.579Z,69.44
2023-02-11T17:37:36.316Z,69.30
2023-02-11T17:40:07.018Z,69.36
2023-02-11T17:42:37.214Z,68.89
2023-02-11T17:45:08.582Z,68.95
2023-02-11T17:47:39.153Z,68.89
2023-02-11T17:50:13.655Z,69.07
2023-02-11T17:52:46.487Z,68.76
2023-02-11T17:55:16.675Z,68.83
2023-02-11T17:57:46.996Z,68.72
2023-02-11T18:00:18.496Z,68.65
2023-02-11T18:02:48.837Z,68.73
2023-02-11T18:05:19.324Z,68.94
2023-02-11T18:07:51.976Z,68.71
2023-02-11T18:10:22.209Z,68.81
2023-02-11T18:12:52.564Z,68.73
2023-02-11T18:15:22.639Z,68.69
2023-02-11T18:17:53.985Z,68.35
2023-02-11T18:20:24.246Z,68.53
2023-02-11T18:22:56.887Z,68.58
2023-02-11T18:25:26.870Z,68.58
2023-02-11T18:27:56.837Z,68.84
2023-02-11T18:30:31.326Z,68.50
2023-02-11T18:33:01.559Z,68.51
2023-02-11T18:35:31.611Z,68.70
2023-02-11T18:38:04.333Z,68.58
2023-02-11T18:40:34.516Z,68.35
2023-02-11T18:43:04.539Z,68.45
2023-02-11T18:45:34.658Z,68.68
2023-02-11T18:48:05.384Z,68.78
2023-02-11T18:50:35.488Z,68.47
2023-02-11T18:53:08.120Z,68.66
2023-02-11T18:55:38.135Z,68.72
2023-02-11T18:58:10.721Z,68.57
2023-02-11T19:00:44.273Z,68.39
2023-02-11T19:03:14.406Z,68.34
2023-02-11T19:05:45.222Z,68.49
2023-02-11T19:08:18.533Z,68.72
2023-02-11T19:10:50.201Z,68.46
2023-02-11T19:13:20.190Z,68.42
2023-02-11T19:15:50.706Z,68.48
2023-02-11T19:18:20.987Z,68.46
2023-02-11T19:20:51.059Z,68.62
2023-02-11T19:23:23.748Z,68.53
2023-02-11T19:25:53.988Z,68.40
2023-02-11T19:28:24.268Z,68.24
2023-02-11T19:30:54.569Z,68.45
2023-02-11T19:33:24.835Z,68.43
2023-02-11T19:35:54.996Z,68.46
2023-02-11T19:38:27.727Z,68.41
2023-02-11T19:41:01.370Z,68.34
2023-02-11T19:43:31.532Z,68.01
2023-02-11T19:46:04.731Z,68.03
2023-02-11T19:48:35.193Z,68.14
2023-02-11T19:51:13.746Z,68.35
2023-02-11T19:53:47.550Z,68.21
2023-02-11T19:56:20.483Z,68.33
2023-02-11T19:58:51.341Z,68.50
2023-02-11T20:01:23.865Z,68.31
2023-02-11T20:03:55.671Z,68.24
2023-02-11T20:06:28.150Z,68.42
2023-02-11T20:09:02.824Z,68.36
2023-02-11T20:11:34.407Z,68.28
2023-02-11T20:14:04.752Z,67.96
2023-02-11T20:16:47.611Z,67.85
2023-02-11T20:19:19.615Z,68.14
2023-02-11T20:21:50.956Z,68.22
2023-02-11T20:24:24.142Z,68.38
2023-02-11T20:26:55.973Z,68.24
2023-02-11T20:29:27.451Z,68.17
2023-02-11T20:31:57.708Z,68.20
2023-02-11T20:34:27.827Z,68.41
2023-02-11T20:36:57.878Z,68.23
2023-02-11T20:39:30.446Z,68.20
2023-02-11T20:42:00.507Z,68.14
2023-02-11T20:44:30.523Z,68.22
2023-02-11T20:47:00.608Z,68.29
2023-02-11T20:49:30.758Z,67.81
2023-02-11T20:52:01.200Z,67.74
2023-02-11T20:54:33.794Z,68.12
2023-02-11T20:57:03.924Z,67.85
2023-02-11T20:59:34.117Z,67.95
2023-02-11T21:02:04.169Z,67.90
2023-02-11T21:04:34.497Z,67.77
2023-02-11T21:07:05.106Z,67.95
2023-02-11T21:09:38.313Z,67.71
2023-02-11T21:12:09.277Z,67.54
2023-02-11T21:14:39.275Z,67.57
2023-02-11T21:17:09.261Z,67.70
2023-02-11T21:19:39.422Z,67.62
2023-02-11T21:22:09.350Z,67.70
2023-02-11T21:24:41.968Z,67.63
2023-02-11T21:27:11.926Z,67.95
2023-02-11T21:29:53.428Z,68.08
2023-02-11T21:32:26.164Z,67.82
2023-02-11T21:34:56.877Z,67.92
2023-02-11T21:37:27.562Z,68.14
2023-02-11T21:40:00.138Z,67.84
2023-02-11T21:42:30.160Z,67.76
2023-02-11T21:45:00.360Z,67.81
2023-02-11T21:47:30.476Z,67.71
2023-02-11T21:50:00.558Z,67.75
2023-02-11T21:52:30.506Z,67.81
2023-02-11T21:55:03.152Z,67.50
2023-02-11T21:57:33.693Z,67.48
2023-02-11T22:00:03.720Z,67.44
2023-02-11T22:02:35.611Z,67.35
2023-02-11T22:05:05.712Z,67.67
2023-02-11T22:07:37.848Z,67.83
2023-02-11T22:10:12.200Z,67.41
2023-02-11T22:12:42.505Z,67.52
2023-02-11T22:15:13.281Z,67.51
2023-02-11T22:17:43.257Z,67.54
2023-02-11T22:20:14.202Z,67.89
2023-02-11T22:22:44.328Z,67.61
2023-02-11T22:25:16.987Z,67.56
2023-02-11T22:27:46.959Z,67.38
2023-02-11T22:30:17.276Z,67.23
2023-02-11T22:32:47.509Z,67.33
2023-02-11T22:35:17.716Z,67.16
2023-02-11T22:37:47.828Z,66.93
2023-02-11T22:40:20.505Z,67.13
2023-02-11T22:42:50.620Z,67.22
2023-02-11T22:45:20.608Z,67.19
2023-02-11T22:47:50.644Z,67.17
2023-02-11T22:50:20.785Z,67.19
2023-02-11T22:52:50.825Z,66.97
2023-02-11T22:55:23.349Z,67.21
2023-02-11T22:57:53.404Z,66.98
2023-02-11T23:00:24.306Z,66.94
2023-02-11T23:02:54.700Z,66.73
2023-02-11T23:05:24.670Z,66.90
2023-02-11T23:07:54.670Z,66.79
2023-02-11T23:10:27.291Z,66.83
2023-02-11T23:12:57.356Z,66.82
2023-02-11T23:15:27.466Z,66.94
2023-02-11T23:17:57.507Z,66.83
2023-02-11T23:20:27.562Z,66.92
2023-02-11T23:22:57.651Z,66.86
2023-02-11T23:25:30.213Z,66.72
2023-02-11T23:28:00.520Z,66.75
2023-02-11T23:30:31.563Z,66.77
2023-02-11T23:33:01.595Z,67.17
2023-02-11T23:35:31.830Z,67.12
2023-02-11T23:38:01.864Z,66.75
2023-02-11T23:40:34.629Z,66.71
2023-02-11T23:43:04.605Z,66.90
2023-02-11T23:45:35.013Z,66.79
2023-02-11T23:48:05.160Z,66.66
2023-02-11T23:50:35.900Z,66.58
2023-02-11T23:53:06.274Z,66.48
2023-02-11T23:55:40.025Z,66.72
2023-02-11T23:58:10.625Z,66.99
